createdAt,value
2022-08-17T00:00:43.215Z,21.50
2022-08-17T00:03:45.065Z,21.60
2022-08-17T00:06:49.457Z,21.60
2022-08-17T00:09:51.334Z,21.60
2022-08-17T00:12:56.623Z,21.60
2022-08-17T00:16:02.748Z,21.50
2022-08-17T00:19:08.760Z,21.50
2022-08-17T00:22:33.992Z,21.40
2022-08-17T00:25:32.455Z,21.30
2022-08-17T00:28:34.201Z,21.30
2022-08-17T00:31:39.948Z,21.20
2022-08-17T00:34:41.619Z,21.10
2022-08-17T00:37:43.380Z,21.00
2022-08-17T00:40:52.216Z,21.00
2022-08-17T00:44:01.511Z,21.00
2022-08-17T00:47:03.313Z,21.00
2022-08-17T00:50:08.457Z,20.90
2022-08-17T00:53:10.437Z,21.00
2022-08-17T00:56:19.578Z,21.10
2022-08-17T00:59:24.759Z,21.00
2022-08-17T01:02:27.673Z,21.00
2022-08-17T01:05:32.380Z,21.00
2022-08-17T01:08:35.630Z,21.00
2022-08-17T01:12:08.450Z,21.00
2022-08-17T01:15:10.927Z,21.00
2022-08-17T01:18:13.645Z,20.90
2022-08-17T01:21:27.817Z,20.80
2022-08-17T01:24:30.143Z,20.80
2022-08-17T01:27:31.974Z,20.80
2022-08-17T01:30:57.739Z,20.70
2022-08-17T01:33:57.838Z,20.70
2022-08-17T01:37:00.310Z,20.60
2022-08-17T01:40:24.186Z,20.60
2022-08-17T01:43:31.569Z,20.60
2022-08-17T01:46:38.263Z,20.50
2022-08-17T01:49:39.945Z,20.50
2022-08-17T01:52:49.206Z,20.50
2022-08-17T01:55:55.400Z,20.40
2022-08-17T01:58:57.163Z,20.40
2022-08-17T02:01:59.050Z,20.40
2022-08-17T02:05:00.985Z,20.30
2022-08-17T02:08:03.997Z,20.30
2022-08-17T02:11:14.576Z,20.30
2022-08-17T02:18:54.385Z,20.20
2022-08-17T02:21:56.261Z,20.30
2022-08-17T02:25:01.924Z,20.40
2022-08-17T02:28:04.933Z,20.40
2022-08-17T02:31:09.454Z,20.40
2022-08-17T02:34:11.917Z,20.40
2022-08-17T02:37:14.378Z,20.40
2022-08-17T02:40:16.821Z,20.30
2022-08-17T02:43:34.894Z,20.30
2022-08-17T02:46:37.012Z,20.30
2022-08-17T02:49:38.745Z,20.20
2022-08-17T02:52:44.112Z,20.30
2022-08-17T02:55:46.254Z,20.20
2022-08-17T02:58:48.044Z,20.10
2022-08-17T03:01:50.121Z,20.10
2022-08-17T03:04:51.970Z,20.10
2022-08-17T03:07:54.015Z,20.00
2022-08-17T03:10:56.060Z,20.00
2022-08-17T03:13:58.483Z,20.00
2022-08-17T03:17:00.241Z,19.90
2022-08-17T03:20:02.249Z,19.90
2022-08-17T03:23:04.220Z,20.00
2022-08-17T03:26:15.228Z,20.00
2022-08-17T03:29:19.236Z,20.00
2022-08-17T03:32:21.026Z,20.00
2022-08-17T03:35:29.819Z,20.00
2022-08-17T03:38:39.100Z,20.30
2022-08-17T03:41:41.225Z,19.90
2022-08-17T03:44:42.908Z,19.90
2022-08-17T03:48:03.235Z,19.90
2022-08-17T03:51:23.702Z,19.90
2022-08-17T03:54:44.423Z,19.80
2022-08-17T03:57:46.107Z,19.90
2022-08-17T04:00:49.885Z,19.80
2022-08-17T04:03:54.562Z,19.70
2022-08-17T04:06:58.874Z,19.70
2022-08-17T04:10:00.945Z,19.60
2022-08-17T04:13:03.748Z,19.60
2022-08-17T04:16:05.582Z,19.70
2022-08-17T04:19:07.438Z,19.70
2022-08-17T04:22:09.184Z,19.80
2022-08-17T04:25:18.281Z,19.80
2022-08-17T04:28:20.677Z,19.90
2022-08-17T04:31:22.888Z,19.90
2022-08-17T04:34:25.065Z,19.90
2022-08-17T04:37:26.920Z,20.00
2022-08-17T04:40:47.608Z,20.00
2022-08-17T04:43:55.989Z,20.10
2022-08-17T04:46:57.671Z,19.90
2022-08-17T04:50:02.323Z,20.00
2022-08-17T04:53:04.050Z,20.00
2022-08-17T04:56:06.432Z,19.90
2022-08-17T04:59:17.232Z,19.90
2022-08-17T05:02:18.891Z,19.70
2022-08-17T05:05:29.792Z,19.70
2022-08-17T05:08:32.994Z,19.70
2022-08-17T05:11:35.404Z,19.60
2022-08-17T05:14:39.193Z,19.60
2022-08-17T05:17:40.886Z,19.50
2022-08-17T05:20:43.336Z,19.50
2022-08-17T05:23:47.170Z,19.50
2022-08-17T05:26:56.557Z,19.50
2022-08-17T05:29:58.256Z,19.60
2022-08-17T05:33:11.949Z,19.60
2022-08-17T05:36:41.934Z,19.70
2022-08-17T05:40:22.448Z,19.90
2022-08-17T05:43:30.450Z,20.10
2022-08-17T05:46:37.985Z,20.20
2022-08-17T05:49:39.927Z,20.50
2022-08-17T05:53:14.965Z,20.70
2022-08-17T05:56:39.319Z,20.90
2022-08-17T06:00:10.906Z,21.30
2022-08-17T06:03:29.440Z,21.80
2022-08-17T06:06:39.801Z,22.30
2022-08-17T06:09:59.720Z,22.70
2022-08-17T06:13:22.873Z,23.20
2022-08-17T06:16:38.956Z,23.80
2022-08-17T06:19:58.113Z,24.40
2022-08-17T06:23:08.645Z,25.00
2022-08-17T06:26:21.025Z,25.60
2022-08-17T06:29:48.777Z,26.10
2022-08-17T06:32:59.482Z,26.70
2022-08-17T06:37:05.501Z,27.10
2022-08-17T06:40:48.709Z,27.40
2022-08-17T06:44:43.185Z,27.80
2022-08-17T06:47:47.542Z,27.80
2022-08-17T06:50:54.642Z,27.60
2022-08-17T06:53:59.579Z,27.60
2022-08-17T06:57:22.992Z,27.70
2022-08-17T07:00:29.751Z,28.00
2022-08-17T07:03:42.988Z,28.30
2022-08-17T07:06:55.378Z,28.60
2022-08-17T07:09:59.816Z,29.10
2022-08-17T07:13:31.563Z,29.40
2022-08-17T07:16:46.725Z,29.70
2022-08-17T07:19:56.759Z,30.00
2022-08-17T07:23:08.782Z,29.90
2022-08-17T07:26:13.151Z,30.40
2022-08-17T07:29:19.866Z,30.60
2022-08-17T07:32:31.699Z,30.60
2022-08-17T07:35:43.844Z,30.60
2022-08-17T07:38:57.459Z,30.50
2022-08-17T07:42:04.093Z,30.40
2022-08-17T07:45:27.621Z,30.30
2022-08-17T07:48:29.385Z,30.30
2022-08-17T07:51:45.640Z,30.60
2022-08-17T07:54:48.267Z,30.50
2022-08-17T07:57:57.295Z,30.50
2022-08-17T08:01:09.723Z,30.40
2022-08-17T08:04:59.230Z,30.40
2022-08-17T08:07:54.893Z,30.50
2022-08-17T08:11:13.922Z,30.50
2022-08-17T08:14:33.881Z,30.40
2022-08-17T08:17:50.275Z,30.40
2022-08-17T08:21:09.373Z,30.00
2022-08-17T08:24:36.613Z,30.00
2022-08-17T08:28:10.197Z,30.30
2022-08-17T08:31:46.288Z,31.00
2022-08-17T08:35:05.434Z,31.70
2022-08-17T08:38:28.187Z,32.10
2022-08-17T08:41:39.150Z,32.50
2022-08-17T08:45:00.160Z,32.60
2022-08-17T08:48:56.816Z,32.70
2022-08-17T08:51:55.475Z,32.80
2022-08-17T08:55:05.529Z,33.10
2022-08-17T08:58:31.943Z,33.40
2022-08-17T09:01:53.298Z,33.70
2022-08-17T09:05:14.196Z,33.90
2022-08-17T09:08:23.304Z,33.90
2022-08-17T09:12:02.163Z,33.60
2022-08-17T09:15:28.164Z,33.40
2022-08-17T09:18:59.158Z,33.10
2022-08-17T09:22:31.243Z,32.80
2022-08-17T09:25:49.725Z,32.80
2022-08-17T09:29:01.437Z,32.70
2022-08-17T09:32:21.917Z,32.90
2022-08-17T09:35:51.602Z,33.00
2022-08-17T09:39:24.277Z,33.30
2022-08-17T09:42:29.525Z,33.50
2022-08-17T09:45:57.116Z,33.70
2022-08-17T09:49:29.554Z,33.80
2022-08-17T09:52:31.859Z,33.80
2022-08-17T09:55:48.400Z,34.00
2022-08-17T09:59:07.397Z,33.80
2022-08-17T10:02:43.738Z,33.90
2022-08-17T10:06:06.627Z,33.80
2022-08-17T10:09:08.694Z,33.90
2022-08-17T10:12:29.958Z,33.80
2022-08-17T10:15:52.170Z,33.50
2022-08-17T10:19:34.562Z,33.40
2022-08-17T10:23:33.555Z,33.60
2022-08-17T10:26:46.217Z,33.60
2022-08-17T10:30:04.339Z,33.50
2022-08-17T10:33:17.304Z,33.60
2022-08-17T10:36:47.338Z,33.50
2022-08-17T10:39:57.457Z,33.20
2022-08-17T10:43:25.448Z,32.70
2022-08-17T10:46:55.403Z,32.40
2022-08-17T10:50:20.186Z,32.30
2022-08-17T10:53:38.652Z,32.30
2022-08-17T10:56:50.398Z,32.20
2022-08-17T10:59:53.704Z,32.40
2022-08-17T11:02:57.465Z,32.40
2022-08-17T11:06:25.220Z,32.20
2022-08-17T11:09:48.591Z,32.30
2022-08-17T11:12:56.161Z,32.40
2022-08-17T11:16:19.112Z,32.40
2022-08-17T11:19:51.340Z,32.30
2022-08-17T11:23:28.884Z,32.20
2022-08-17T11:26:36.642Z,32.00
2022-08-17T11:30:07.104Z,32.00
2022-08-17T11:33:38.165Z,32.10
2022-08-17T11:37:11.560Z,32.00
2022-08-17T11:40:43.064Z,32.00
2022-08-17T11:44:26.184Z,31.90
2022-08-17T11:48:27.267Z,31.60
2022-08-17T11:51:54.301Z,31.40
2022-08-17T11:55:12.411Z,31.20
2022-08-17T11:58:30.409Z,31.20
2022-08-17T12:01:32.029Z,31.10
2022-08-17T12:04:35.934Z,31.10
2022-08-17T12:07:56.325Z,31.00
2022-08-17T12:11:06.455Z,31.20
2022-08-17T12:14:15.065Z,31.10
2022-08-17T12:17:39.442Z,31.00
2022-08-17T12:21:01.913Z,30.90
2022-08-17T12:24:23.837Z,30.90
2022-08-17T12:27:46.112Z,30.80
2022-08-17T12:31:04.201Z,30.80
2022-08-17T12:34:12.369Z,30.80
2022-08-17T12:37:24.860Z,30.80
2022-08-17T12:40:33.873Z,30.80
2022-08-17T12:43:37.853Z,30.70
2022-08-17T12:47:00.777Z,30.70
2022-08-17T12:50:28.795Z,30.70
2022-08-17T12:53:35.070Z,30.60
2022-08-17T12:56:37.183Z,30.60
2022-08-17T12:59:53.319Z,30.50
2022-08-17T13:03:15.559Z,30.40
2022-08-17T13:06:30.103Z,30.30
2022-08-17T13:09:40.123Z,30.30
2022-08-17T13:12:46.194Z,30.30
2022-08-17T13:15:58.671Z,30.20
2022-08-17T13:19:15.511Z,30.20
2022-08-17T13:22:23.561Z,30.20
2022-08-17T13:25:26.663Z,30.00
2022-08-17T13:28:35.751Z,30.10
2022-08-17T13:31:51.940Z,30.10
2022-08-17T13:35:15.357Z,30.00
2022-08-17T13:38:45.539Z,30.00
2022-08-17T13:41:49.705Z,30.00
2022-08-17T13:44:53.456Z,30.00
2022-08-17T13:48:11.947Z,30.10
2022-08-17T13:51:24.314Z,30.00
2022-08-17T13:54:35.130Z,30.00
2022-08-17T13:57:37.145Z,30.00
2022-08-17T14:00:39.405Z,30.00
2022-08-17T14:03:41.117Z,29.90
2022-08-17T14:06:52.828Z,29.80
2022-08-17T14:10:15.173Z,29.70
2022-08-17T14:13:16.849Z,29.80
2022-08-17T14:16:20.420Z,29.70
2022-08-17T14:19:22.362Z,29.70
2022-08-17T14:22:31.574Z,29.80
2022-08-17T14:25:33.237Z,29.80
2022-08-17T14:28:36.465Z,30.10
2022-08-17T14:31:38.913Z,29.80
2022-08-17T14:34:43.301Z,29.90
2022-08-17T14:37:45.702Z,29.80
2022-08-17T14:40:48.607Z,29.80
2022-08-17T14:43:52.904Z,29.90
2022-08-17T14:46:54.568Z,29.90
2022-08-17T14:49:56.213Z,29.90
2022-08-17T14:52:59.295Z,30.00
2022-08-17T14:56:03.922Z,30.00
2022-08-17T14:59:06.089Z,30.00
2022-08-17T15:02:08.160Z,30.00
2022-08-17T15:05:10.002Z,30.00
2022-08-17T15:08:12.015Z,30.00
2022-08-17T15:11:14.777Z,30.00
2022-08-17T15:14:16.432Z,30.00
2022-08-17T15:17:18.116Z,30.00
2022-08-17T15:20:26.682Z,29.90
2022-08-17T15:23:28.406Z,29.80
2022-08-17T15:26:30.331Z,29.80
2022-08-17T15:29:34.456Z,29.70
2022-08-17T15:32:40.526Z,29.70
2022-08-17T15:35:42.855Z,29.60
2022-08-17T15:38:45.009Z,29.60
2022-08-17T15:41:47.272Z,29.60
2022-08-17T15:45:09.084Z,29.50
2022-08-17T15:48:14.170Z,29.50
2022-08-17T15:51:34.151Z,29.60
2022-08-17T15:54:36.080Z,29.50
2022-08-17T15:57:39.878Z,29.50
2022-08-17T16:00:53.052Z,29.50
2022-08-17T16:04:26.680Z,29.50
2022-08-17T16:07:26.899Z,29.40
2022-08-17T16:10:35.714Z,29.30
2022-08-17T16:13:38.712Z,29.30
2022-08-17T16:16:41.696Z,29.40
2022-08-17T16:19:43.686Z,29.20
2022-08-17T16:22:46.322Z,29.20
2022-08-17T16:25:52.858Z,29.10
2022-08-17T16:28:57.034Z,29.00
2022-08-17T16:32:06.833Z,28.90
2022-08-17T16:35:11.289Z,28.80
2022-08-17T16:38:15.040Z,28.70
2022-08-17T16:41:38.535Z,28.70
2022-08-17T16:44:40.185Z,28.60
2022-08-17T16:47:42.369Z,28.50
2022-08-17T16:50:44.286Z,28.40
2022-08-17T16:54:06.493Z,28.40
2022-08-17T16:57:08.254Z,28.40
2022-08-17T17:00:14.725Z,28.30
2022-08-17T17:03:24.703Z,28.30
2022-08-17T17:07:01.152Z,28.20
2022-08-17T17:10:13.065Z,28.20
2022-08-17T17:13:29.625Z,28.10
2022-08-17T17:16:48.801Z,28.10
2022-08-17T17:20:18.158Z,28.00
2022-08-17T17:23:39.382Z,28.10
2022-08-17T17:27:00.342Z,28.00
2022-08-17T17:30:17.972Z,28.00
2022-08-17T17:33:27.292Z,27.90
2022-08-17T17:36:50.106Z,27.90
2022-08-17T17:39:58.697Z,27.80
2022-08-17T17:43:27.277Z,27.80
2022-08-17T17:46:32.809Z,27.70
2022-08-17T17:49:41.650Z,27.80
2022-08-17T17:53:35.094Z,27.70
2022-08-17T17:56:54.545Z,27.60
2022-08-17T18:00:13.738Z,27.60
2022-08-17T18:44:39.663Z,26.70
2022-08-17T18:57:13.297Z,26.40
2022-08-17T19:00:20.895Z,26.40
2022-08-17T19:03:26.118Z,26.30
2022-08-17T19:06:36.552Z,26.20
2022-08-17T19:09:50.386Z,26.10
2022-08-17T19:13:12.659Z,26.10
2022-08-17T19:16:38.033Z,26.10
2022-08-17T19:19:45.525Z,26.00
2022-08-17T19:23:10.768Z,26.00
2022-08-17T19:26:50.614Z,25.90
2022-08-17T19:29:57.794Z,25.90
2022-08-17T19:33:02.054Z,25.80
2022-08-17T19:36:18.684Z,25.80
2022-08-17T19:39:38.498Z,25.70
2022-08-17T19:42:57.130Z,25.70
2022-08-17T19:46:31.169Z,25.70
2022-08-17T19:50:07.214Z,25.60
2022-08-17T19:53:54.483Z,25.50
2022-08-17T19:57:16.884Z,25.50
2022-08-17T20:00:19.214Z,25.30
2022-08-17T20:04:02.797Z,25.30
2022-08-17T20:07:12.860Z,25.20
2022-08-17T20:10:26.665Z,25.10
2022-08-17T20:13:46.005Z,25.10
2022-08-17T20:16:48.053Z,25.00
2022-08-17T20:19:51.782Z,25.10
2022-08-17T20:23:14.882Z,25.00
2022-08-17T20:26:27.682Z,25.00
2022-08-17T20:29:55.018Z,24.90
2022-08-17T20:32:58.147Z,24.80
2022-08-17T20:36:17.352Z,24.70
2022-08-17T20:39:56.669Z,25.00
2022-08-17T20:46:37.799Z,24.50
2022-08-17T20:49:49.274Z,24.50
2022-08-17T20:52:55.480Z,24.30
2022-08-17T20:55:57.195Z,24.30
2022-08-17T20:59:00.729Z,24.20
2022-08-17T21:02:18.457Z,24.20
2022-08-17T21:06:16.791Z,24.10
2022-08-17T21:09:29.899Z,24.10
2022-08-17T21:12:47.840Z,24.00
2022-08-17T21:16:12.590Z,24.00
2022-08-17T21:20:07.686Z,23.90
2022-08-17T21:23:40.400Z,23.90
2022-08-17T21:27:28.789Z,23.90
2022-08-17T21:30:33.186Z,23.90
2022-08-17T21:33:38.878Z,23.90
2022-08-17T21:36:49.736Z,23.90
2022-08-17T21:39:58.753Z,23.90
2022-08-17T21:43:08.372Z,23.90
2022-08-17T21:46:25.019Z,23.90
2022-08-17T21:49:28.604Z,23.90
2022-08-17T21:52:30.890Z,23.80
2022-08-17T21:55:35.913Z,23.70
2022-08-17T21:58:40.608Z,23.50
2022-08-17T22:01:43.007Z,23.30
2022-08-17T22:04:57.447Z,23.20
2022-08-17T22:08:04.162Z,23.10
2022-08-17T22:11:05.857Z,23.20
2022-08-17T22:14:52.375Z,22.80
2022-08-17T22:17:55.788Z,22.80
2022-08-17T22:21:01.900Z,22.70
2022-08-17T22:24:17.934Z,22.70
2022-08-17T22:27:20.142Z,22.60
2022-08-17T22:31:14.638Z,22.70
2022-08-17T22:34:17.272Z,22.60
2022-08-17T22:37:28.336Z,22.60
2022-08-17T22:40:33.464Z,22.60
2022-08-17T22:43:38.426Z,22.60
2022-08-17T22:46:53.413Z,22.60
2022-08-17T22:49:59.089Z,22.50
2022-08-17T22:53:41.115Z,22.50
2022-08-17T22:57:18.980Z,22.50
2022-08-17T23:00:40.416Z,22.50
2022-08-17T23:04:01.314Z,22.40
2022-08-17T23:07:03.054Z,22.40
2022-08-17T23:10:07.929Z,22.40
2022-08-17T23:13:12.621Z,22.20
2022-08-17T23:16:17.069Z,22.00
2022-08-17T23:19:21.939Z,21.80
2022-08-17T23:22:24.376Z,21.70
2022-08-17T23:25:29.356Z,21.60
2022-08-17T23:28:31.115Z,21.50
2022-08-17T23:31:34.762Z,21.40
2022-08-17T23:34:41.092Z,21.40
2022-08-17T23:37:45.656Z,21.30
2022-08-17T23:40:47.417Z,21.30
2022-08-17T23:43:52.588Z,21.20
2022-08-17T23:46:54.836Z,21.30
2022-08-17T23:49:59.699Z,21.30
2022-08-17T23:53:05.860Z,21.30
2022-08-17T23:56:11.261Z,21.30
2022-08-17T23:59:21.200Z,21.40
